sensor_id;sensor_type;location;lat;lon;timestamp;temperature;humidity
75819;DHT22;64453;51.944;9.796;2023-08-17T00:00:58;23.90;58.00
75819;DHT22;64453;51.944;9.796;2023-08-17T00:03:25;24.10;58.30
75819;DHT22;64453;51.944;9.796;2023-08-17T00:05:52;24.20;59.60
75819;DHT22;64453;51.944;9.796;2023-08-17T00:08:19;24.10;59.70
75819;DHT22;64453;51.944;9.796;2023-08-17T00:10:46;24.20;60.40
75819;DHT22;64453;51.944;9.796;2023-08-17T00:13:14;24.30;59.80
75819;DHT22;64453;51.944;9.796;2023-08-17T00:15:41;24.10;59.30
75819;DHT22;64453;51.944;9.796;2023-08-17T00:18:10;24.10;61.40
75819;DHT22;64453;51.944;9.796;2023-08-17T00:20:37;24.20;61.50
75819;DHT22;64453;51.944;9.796;2023-08-17T00:23:04;23.90;61.80
75819;DHT22;64453;51.944;9.796;2023-08-17T00:25:31;24.00;61.70
75819;DHT22;64453;51.944;9.796;2023-08-17T00:27:58;24.10;61.80
75819;DHT22;64453;51.944;9.796;2023-08-17T00:30:26;24.20;61.40
75819;DHT22;64453;51.944;9.796;2023-08-17T00:32:53;24.20;61.40
75819;DHT22;64453;51.944;9.796;2023-08-17T00:35:20;24.10;62.10
75819;DHT22;64453;51.944;9.796;2023-08-17T00:37:47;23.40;62.50
75819;DHT22;64453;51.944;9.796;2023-08-17T00:40:14;23.80;62.50
75819;DHT22;64453;51.944;9.796;2023-08-17T00:42:41;23.80;62.50
75819;DHT22;64453;51.944;9.796;2023-08-17T00:45:08;23.40;62.50
75819;DHT22;64453;51.944;9.796;2023-08-17T00:47:37;23.70;62.40
75819;DHT22;64453;51.944;9.796;2023-08-17T00:50:06;23.80;62.70
75819;DHT22;64453;51.944;9.796;2023-08-17T00:52:33;23.90;62.50
75819;DHT22;64453;51.944;9.796;2023-08-17T00:55:01;23.40;62.50
75819;DHT22;64453;51.944;9.796;2023-08-17T00:57:30;23.60;63.00
75819;DHT22;64453;51.944;9.796;2023-08-17T00:59:58;23.80;63.20
75819;DHT22;64453;51.944;9.796;2023-08-17T01:02:26;23.80;63.30
75819;DHT22;64453;51.944;9.796;2023-08-17T01:04:54;23.80;62.00
75819;DHT22;64453;51.944;9.796;2023-08-17T01:07:21;23.30;62.20
75819;DHT22;64453;51.944;9.796;2023-08-17T01:09:48;23.40;62.10
75819;DHT22;64453;51.944;9.796;2023-08-17T01:12:22;23.20;63.10
75819;DHT22;64453;51.944;9.796;2023-08-17T01:14:59;23.40;63.10
75819;DHT22;64453;51.944;9.796;2023-08-17T01:17:31;23.10;63.00
75819;DHT22;64453;51.944;9.796;2023-08-17T01:20:02;23.30;64.10
75819;DHT22;64453;51.944;9.796;2023-08-17T01:22:30;23.40;63.50
75819;DHT22;64453;51.944;9.796;2023-08-17T01:25:00;23.50;63.20
75819;DHT22;64453;51.944;9.796;2023-08-17T01:27:36;23.60;63.00
75819;DHT22;64453;51.944;9.796;2023-08-17T01:30:07;23.60;62.60
75819;DHT22;64453;51.944;9.796;2023-08-17T01:32:39;22.80;62.10
75819;DHT22;64453;51.944;9.796;2023-08-17T01:35:14;22.90;64.40
75819;DHT22;64453;51.944;9.796;2023-08-17T01:37:44;23.30;63.40
75819;DHT22;64453;51.944;9.796;2023-08-17T01:40:12;23.40;63.10
75819;DHT22;64453;51.944;9.796;2023-08-17T01:42:41;23.70;63.50
75819;DHT22;64453;51.944;9.796;2023-08-17T01:45:10;23.60;63.40
75819;DHT22;64453;51.944;9.796;2023-08-17T01:47:37;23.70;63.00
75819;DHT22;64453;51.944;9.796;2023-08-17T01:50:05;23.70;62.50
75819;DHT22;64453;51.944;9.796;2023-08-17T01:52:32;23.50;62.90
75819;DHT22;64453;51.944;9.796;2023-08-17T01:55:00;23.30;62.90
75819;DHT22;64453;51.944;9.796;2023-08-17T01:57:28;23.30;63.30
75819;DHT22;64453;51.944;9.796;2023-08-17T01:59:55;23.10;63.90
75819;DHT22;64453;51.944;9.796;2023-08-17T02:02:22;23.20;63.70
75819;DHT22;64453;51.944;9.796;2023-08-17T02:04:49;23.20;64.30
75819;DHT22;64453;51.944;9.796;2023-08-17T02:07:16;23.20;64.10
75819;DHT22;64453;51.944;9.796;2023-08-17T02:09:43;23.50;64.00
75819;DHT22;64453;51.944;9.796;2023-08-17T02:12:10;23.30;64.10
75819;DHT22;64453;51.944;9.796;2023-08-17T02:14:39;23.30;64.50
75819;DHT22;64453;51.944;9.796;2023-08-17T02:17:06;23.40;64.20
75819;DHT22;64453;51.944;9.796;2023-08-17T02:19:33;23.40;64.20
75819;DHT22;64453;51.944;9.796;2023-08-17T02:22:01;23.30;65.00
75819;DHT22;64453;51.944;9.796;2023-08-17T02:24:28;23.40;64.60
75819;DHT22;64453;51.944;9.796;2023-08-17T02:26:55;23.10;64.60
75819;DHT22;64453;51.944;9.796;2023-08-17T02:29:22;23.30;65.90
75819;DHT22;64453;51.944;9.796;2023-08-17T02:31:50;23.40;65.60
75819;DHT22;64453;51.944;9.796;2023-08-17T02:34:17;23.50;64.90
75819;DHT22;64453;51.944;9.796;2023-08-17T02:36:44;23.50;65.00
75819;DHT22;64453;51.944;9.796;2023-08-17T02:39:11;23.30;64.70
75819;DHT22;64453;51.944;9.796;2023-08-17T02:41:38;23.20;65.50
75819;DHT22;64453;51.944;9.796;2023-08-17T02:44:05;23.30;66.00
75819;DHT22;64453;51.944;9.796;2023-08-17T02:46:32;23.50;65.70
75819;DHT22;64453;51.944;9.796;2023-08-17T02:49:00;23.60;65.20
75819;DHT22;64453;51.944;9.796;2023-08-17T02:51:27;23.50;64.60
75819;DHT22;64453;51.944;9.796;2023-08-17T02:53:54;23.40;65.00
75819;DHT22;64453;51.944;9.796;2023-08-17T02:56:37;23.50;64.30
75819;DHT22;64453;51.944;9.796;2023-08-17T02:59:04;23.40;64.20
75819;DHT22;64453;51.944;9.796;2023-08-17T03:01:31;23.00;65.50
75819;DHT22;64453;51.944;9.796;2023-08-17T03:03:58;22.80;65.70
75819;DHT22;64453;51.944;9.796;2023-08-17T03:06:25;22.90;66.10
75819;DHT22;64453;51.944;9.796;2023-08-17T03:08:52;23.10;66.00
75819;DHT22;64453;51.944;9.796;2023-08-17T03:11:20;23.00;65.50
75819;DHT22;64453;51.944;9.796;2023-08-17T03:13:48;23.00;65.60
75819;DHT22;64453;51.944;9.796;2023-08-17T03:16:15;23.10;66.40
75819;DHT22;64453;51.944;9.796;2023-08-17T03:18:43;22.80;65.70
75819;DHT22;64453;51.944;9.796;2023-08-17T03:21:11;22.90;66.10
75819;DHT22;64453;51.944;9.796;2023-08-17T03:23:38;23.00;66.20
75819;DHT22;64453;51.944;9.796;2023-08-17T03:26:05;23.00;66.00
75819;DHT22;64453;51.944;9.796;2023-08-17T03:28:32;23.10;65.80
75819;DHT22;64453;51.944;9.796;2023-08-17T03:31:01;23.20;65.70
75819;DHT22;64453;51.944;9.796;2023-08-17T03:33:29;23.20;66.00
75819;DHT22;64453;51.944;9.796;2023-08-17T03:35:57;23.20;65.90
75819;DHT22;64453;51.944;9.796;2023-08-17T03:38:24;23.30;66.20
75819;DHT22;64453;51.944;9.796;2023-08-17T03:40:51;23.40;65.80
75819;DHT22;64453;51.944;9.796;2023-08-17T03:43:18;23.50;66.00
75819;DHT22;64453;51.944;9.796;2023-08-17T03:45:45;23.50;66.10
75819;DHT22;64453;51.944;9.796;2023-08-17T03:48:14;23.20;65.80
75819;DHT22;64453;51.944;9.796;2023-08-17T03:50:41;23.20;65.70
75819;DHT22;64453;51.944;9.796;2023-08-17T03:53:08;23.10;66.10
75819;DHT22;64453;51.944;9.796;2023-08-17T03:55:34;23.30;66.30
75819;DHT22;64453;51.944;9.796;2023-08-17T03:58:02;23.30;66.20
75819;DHT22;64453;51.944;9.796;2023-08-17T04:00:29;23.40;66.50
75819;DHT22;64453;51.944;9.796;2023-08-17T04:02:56;23.40;66.60
75819;DHT22;64453;51.944;9.796;2023-08-17T04:05:24;23.40;66.40
75819;DHT22;64453;51.944;9.796;2023-08-17T04:07:51;23.50;65.80
75819;DHT22;64453;51.944;9.796;2023-08-17T04:10:18;23.30;66.50
75819;DHT22;64453;51.944;9.796;2023-08-17T04:12:45;23.40;66.70
75819;DHT22;64453;51.944;9.796;2023-08-17T04:15:12;23.40;66.70
75819;DHT22;64453;51.944;9.796;2023-08-17T04:17:39;23.50;66.40
75819;DHT22;64453;51.944;9.796;2023-08-17T04:20:09;23.40;66.30
75819;DHT22;64453;51.944;9.796;2023-08-17T04:22:38;23.50;66.60
75819;DHT22;64453;51.944;9.796;2023-08-17T04:25:05;23.50;66.70
75819;DHT22;64453;51.944;9.796;2023-08-17T04:27:33;23.50;66.50
75819;DHT22;64453;51.944;9.796;2023-08-17T04:30:00;23.50;66.40
75819;DHT22;64453;51.944;9.796;2023-08-17T04:32:27;23.50;66.60
75819;DHT22;64453;51.944;9.796;2023-08-17T04:34:55;23.50;66.70
75819;DHT22;64453;51.944;9.796;2023-08-17T04:37:22;23.30;66.80
75819;DHT22;64453;51.944;9.796;2023-08-17T04:39:51;23.20;67.30
75819;DHT22;64453;51.944;9.796;2023-08-17T04:42:18;23.30;67.70
75819;DHT22;64453;51.944;9.796;2023-08-17T04:44:46;23.40;67.80
75819;DHT22;64453;51.944;9.796;2023-08-17T04:47:13;23.30;67.70
75819;DHT22;64453;51.944;9.796;2023-08-17T04:49:40;23.10;68.00
75819;DHT22;64453;51.944;9.796;2023-08-17T04:52:07;23.30;68.10
75819;DHT22;64453;51.944;9.796;2023-08-17T04:54:34;23.40;68.00
75819;DHT22;64453;51.944;9.796;2023-08-17T04:57:03;23.50;68.00
75819;DHT22;64453;51.944;9.796;2023-08-17T04:59:31;23.50;67.90
75819;DHT22;64453;51.944;9.796;2023-08-17T05:01:58;23.30;67.70
75819;DHT22;64453;51.944;9.796;2023-08-17T05:04:25;23.50;68.10
75819;DHT22;64453;51.944;9.796;2023-08-17T05:06:52;23.50;68.10
75819;DHT22;64453;51.944;9.796;2023-08-17T05:09:19;23.50;68.50
75819;DHT22;64453;51.944;9.796;2023-08-17T05:11:46;23.40;68.40
75819;DHT22;64453;51.944;9.796;2023-08-17T05:14:15;23.50;68.90
75819;DHT22;64453;51.944;9.796;2023-08-17T05:16:41;23.40;68.80
75819;DHT22;64453;51.944;9.796;2023-08-17T05:19:09;23.40;69.10
75819;DHT22;64453;51.944;9.796;2023-08-17T05:21:36;23.50;68.80
75819;DHT22;64453;51.944;9.796;2023-08-17T05:24:05;23.50;68.90
75819;DHT22;64453;51.944;9.796;2023-08-17T05:26:32;23.60;68.90
75819;DHT22;64453;51.944;9.796;2023-08-17T05:29:00;23.60;69.30
75819;DHT22;64453;51.944;9.796;2023-08-17T05:31:28;23.70;68.90
75819;DHT22;64453;51.944;9.796;2023-08-17T05:33:55;23.70;69.10
75819;DHT22;64453;51.944;9.796;2023-08-17T05:36:22;23.70;69.30
75819;DHT22;64453;51.944;9.796;2023-08-17T05:38:49;23.70;68.80
75819;DHT22;64453;51.944;9.796;2023-08-17T05:41:16;23.80;69.80
75819;DHT22;64453;51.944;9.796;2023-08-17T05:43:44;23.70;68.30
75819;DHT22;64453;51.944;9.796;2023-08-17T05:46:11;23.80;68.50
75819;DHT22;64453;51.944;9.796;2023-08-17T05:48:40;23.80;68.60
75819;DHT22;64453;51.944;9.796;2023-08-17T05:51:08;23.80;68.30
75819;DHT22;64453;51.944;9.796;2023-08-17T05:53:35;23.80;68.20
75819;DHT22;64453;51.944;9.796;2023-08-17T05:56:02;23.80;68.40
75819;DHT22;64453;51.944;9.796;2023-08-17T05:58:29;23.80;68.90
75819;DHT22;64453;51.944;9.796;2023-08-17T06:01:04;23.80;69.00
75819;DHT22;64453;51.944;9.796;2023-08-17T06:03:33;23.80;68.80
75819;DHT22;64453;51.944;9.796;2023-08-17T06:06:01;23.80;68.70
75819;DHT22;64453;51.944;9.796;2023-08-17T06:08:28;23.70;69.30
75819;DHT22;64453;51.944;9.796;2023-08-17T06:10:56;23.50;70.20
75819;DHT22;64453;51.944;9.796;2023-08-17T06:13:24;23.60;70.20
75819;DHT22;64453;51.944;9.796;2023-08-17T06:15:50;23.60;69.80
75819;DHT22;64453;51.944;9.796;2023-08-17T06:18:17;23.60;69.60
75819;DHT22;64453;51.944;9.796;2023-08-17T06:20:46;23.70;69.80
75819;DHT22;64453;51.944;9.796;2023-08-17T06:23:15;23.70;69.60
75819;DHT22;64453;51.944;9.796;2023-08-17T06:25:41;23.80;69.90
75819;DHT22;64453;51.944;9.796;2023-08-17T06:28:09;23.90;70.20
75819;DHT22;64453;51.944;9.796;2023-08-17T06:30:36;23.90;69.60
75819;DHT22;64453;51.944;9.796;2023-08-17T06:33:03;23.90;69.40
75819;DHT22;64453;51.944;9.796;2023-08-17T06:35:31;23.90;69.90
75819;DHT22;64453;51.944;9.796;2023-08-17T06:37:58;24.00;69.40
75819;DHT22;64453;51.944;9.796;2023-08-17T06:40:26;23.90;68.90
75819;DHT22;64453;51.944;9.796;2023-08-17T06:42:54;24.00;68.90
75819;DHT22;64453;51.944;9.796;2023-08-17T06:45:21;24.00;69.90
75819;DHT22;64453;51.944;9.796;2023-08-17T06:47:48;24.10;70.10
75819;DHT22;64453;51.944;9.796;2023-08-17T06:50:15;24.10;69.90
75819;DHT22;64453;51.944;9.796;2023-08-17T06:52:42;24.10;69.40
75819;DHT22;64453;51.944;9.796;2023-08-17T06:55:09;24.00;69.60
75819;DHT22;64453;51.944;9.796;2023-08-17T06:57:38;23.90;69.80
75819;DHT22;64453;51.944;9.796;2023-08-17T07:00:06;23.90;70.00
75819;DHT22;64453;51.944;9.796;2023-08-17T07:02:35;24.10;70.10
75819;DHT22;64453;51.944;9.796;2023-08-17T07:05:02;24.10;70.60
75819;DHT22;64453;51.944;9.796;2023-08-17T07:07:30;24.20;70.60
75819;DHT22;64453;51.944;9.796;2023-08-17T07:09:58;24.00;69.90
75819;DHT22;64453;51.944;9.796;2023-08-17T07:12:25;24.10;70.00
75819;DHT22;64453;51.944;9.796;2023-08-17T07:14:53;24.20;70.70
75819;DHT22;64453;51.944;9.796;2023-08-17T07:17:20;24.10;70.50
75819;DHT22;64453;51.944;9.796;2023-08-17T07:19:48;24.10;71.20
75819;DHT22;64453;51.944;9.796;2023-08-17T07:22:15;24.10;71.30
75819;DHT22;64453;51.944;9.796;2023-08-17T07:24:42;24.10;71.10
75819;DHT22;64453;51.944;9.796;2023-08-17T07:27:09;24.10;71.30
75819;DHT22;64453;51.944;9.796;2023-08-17T07:29:36;24.10;71.60
75819;DHT22;64453;51.944;9.796;2023-08-17T07:32:05;24.10;72.10
75819;DHT22;64453;51.944;9.796;2023-08-17T07:34:32;24.10;72.10
75819;DHT22;64453;51.944;9.796;2023-08-17T07:37:00;24.20;72.20
75819;DHT22;64453;51.944;9.796;2023-08-17T07:39:27;24.20;72.20
75819;DHT22;64453;51.944;9.796;2023-08-17T07:41:53;24.30;72.40
75819;DHT22;64453;51.944;9.796;2023-08-17T07:44:20;24.30;72.30
75819;DHT22;64453;51.944;9.796;2023-08-17T07:46:48;24.40;71.60
75819;DHT22;64453;51.944;9.796;2023-08-17T07:49:16;24.40;72.20
75819;DHT22;64453;51.944;9.796;2023-08-17T07:51:43;24.30;72.30
75819;DHT22;64453;51.944;9.796;2023-08-17T07:54:10;24.30;72.20
75819;DHT22;64453;51.944;9.796;2023-08-17T07:56:37;24.30;72.00
75819;DHT22;64453;51.944;9.796;2023-08-17T07:59:04;24.30;72.70
75819;DHT22;64453;51.944;9.796;2023-08-17T08:01:31;24.40;72.60
75819;DHT22;64453;51.944;9.796;2023-08-17T08:03:58;24.40;71.20
75819;DHT22;64453;51.944;9.796;2023-08-17T08:06:27;24.50;71.30
75819;DHT22;64453;51.944;9.796;2023-08-17T08:08:54;24.50;71.70
75819;DHT22;64453;51.944;9.796;2023-08-17T08:11:21;24.50;70.80
75819;DHT22;64453;51.944;9.796;2023-08-17T08:13:49;24.50;70.90
75819;DHT22;64453;51.944;9.796;2023-08-17T08:16:16;24.50;70.50
75819;DHT22;64453;51.944;9.796;2023-08-17T08:18:43;24.40;71.00
75819;DHT22;64453;51.944;9.796;2023-08-17T08:21:10;24.50;71.10
75819;DHT22;64453;51.944;9.796;2023-08-17T08:23:38;24.50;71.10
75819;DHT22;64453;51.944;9.796;2023-08-17T08:26:05;24.50;71.10
75819;DHT22;64453;51.944;9.796;2023-08-17T08:28:32;24.60;71.10
75819;DHT22;64453;51.944;9.796;2023-08-17T08:31:01;24.50;71.00
75819;DHT22;64453;51.944;9.796;2023-08-17T08:33:29;24.30;71.60
75819;DHT22;64453;51.944;9.796;2023-08-17T08:35:56;24.50;72.40
75819;DHT22;64453;51.944;9.796;2023-08-17T08:38:24;24.50;72.60
75819;DHT22;64453;51.944;9.796;2023-08-17T08:40:53;24.50;72.60
75819;DHT22;64453;51.944;9.796;2023-08-17T08:43:20;24.50;72.40
75819;DHT22;64453;51.944;9.796;2023-08-17T08:45:47;24.50;71.80
75819;DHT22;64453;51.944;9.796;2023-08-17T08:48:15;24.50;71.90
75819;DHT22;64453;51.944;9.796;2023-08-17T08:50:45;24.50;71.70
75819;DHT22;64453;51.944;9.796;2023-08-17T08:53:15;24.30;71.90
75819;DHT22;64453;51.944;9.796;2023-08-17T08:55:47;24.40;72.00
75819;DHT22;64453;51.944;9.796;2023-08-17T08:58:18;24.50;72.40
75819;DHT22;64453;51.944;9.796;2023-08-17T09:00:45;24.60;73.00
75819;DHT22;64453;51.944;9.796;2023-08-17T09:03:14;24.70;73.20
75819;DHT22;64453;51.944;9.796;2023-08-17T09:05:44;24.50;72.20
75819;DHT22;64453;51.944;9.796;2023-08-17T09:08:21;24.60;72.20
75819;DHT22;64453;51.944;9.796;2023-08-17T09:10:49;24.90;72.10
75819;DHT22;64453;51.944;9.796;2023-08-17T09:13:18;24.70;73.50
75819;DHT22;64453;51.944;9.796;2023-08-17T09:15:54;24.60;73.70
75819;DHT22;64453;51.944;9.796;2023-08-17T09:18:23;24.60;73.00
75819;DHT22;64453;51.944;9.796;2023-08-17T09:20:51;25.50;70.10
75819;DHT22;64453;51.944;9.796;2023-08-17T09:23:20;25.40;70.90
75819;DHT22;64453;51.944;9.796;2023-08-17T09:26:24;25.00;71.90
75819;DHT22;64453;51.944;9.796;2023-08-17T09:28:51;25.20;72.00
75819;DHT22;64453;51.944;9.796;2023-08-17T09:31:20;25.20;72.10
75819;DHT22;64453;51.944;9.796;2023-08-17T09:33:49;25.10;72.30
75819;DHT22;64453;51.944;9.796;2023-08-17T09:36:20;25.20;72.70
75819;DHT22;64453;51.944;9.796;2023-08-17T09:38:48;25.20;73.40
75819;DHT22;64453;51.944;9.796;2023-08-17T09:41:16;25.20;73.20
75819;DHT22;64453;51.944;9.796;2023-08-17T09:43:45;25.10;72.30
75819;DHT22;64453;51.944;9.796;2023-08-17T09:46:12;25.10;71.50
75819;DHT22;64453;51.944;9.796;2023-08-17T09:48:39;25.10;73.20
75819;DHT22;64453;51.944;9.796;2023-08-17T09:51:06;25.20;74.10
75819;DHT22;64453;51.944;9.796;2023-08-17T09:53:35;25.20;73.10
75819;DHT22;64453;51.944;9.796;2023-08-17T09:56:04;25.20;74.00
75819;DHT22;64453;51.944;9.796;2023-08-17T09:58:33;25.10;71.70
75819;DHT22;64453;51.944;9.796;2023-08-17T10:01:03;24.90;71.20
75819;DHT22;64453;51.944;9.796;2023-08-17T10:03:33;25.00;71.50
75819;DHT22;64453;51.944;9.796;2023-08-17T10:06:05;25.00;71.70
75819;DHT22;64453;51.944;9.796;2023-08-17T10:08:42;25.00;72.00
75819;DHT22;64453;51.944;9.796;2023-08-17T10:11:12;25.00;72.00
75819;DHT22;64453;51.944;9.796;2023-08-17T10:13:43;24.90;73.50
75819;DHT22;64453;51.944;9.796;2023-08-17T10:16:22;24.60;72.60
75819;DHT22;64453;51.944;9.796;2023-08-17T10:18:53;24.80;73.50
75819;DHT22;64453;51.944;9.796;2023-08-17T10:21:27;24.80;73.90
75819;DHT22;64453;51.944;9.796;2023-08-17T10:23:55;24.70;73.00
75819;DHT22;64453;51.944;9.796;2023-08-17T10:26:23;24.70;73.80
75819;DHT22;64453;51.944;9.796;2023-08-17T10:28:51;24.70;73.10
75819;DHT22;64453;51.944;9.796;2023-08-17T10:31:21;24.90;73.10
75819;DHT22;64453;51.944;9.796;2023-08-17T10:33:48;25.00;73.80
75819;DHT22;64453;51.944;9.796;2023-08-17T10:36:16;25.20;73.60
75819;DHT22;64453;51.944;9.796;2023-08-17T10:38:43;25.10;73.70
75819;DHT22;64453;51.944;9.796;2023-08-17T10:41:11;25.10;73.40
75819;DHT22;64453;51.944;9.796;2023-08-17T10:43:56;25.10;74.20
75819;DHT22;64453;51.944;9.796;2023-08-17T10:46:36;25.20;74.70
75819;DHT22;64453;51.944;9.796;2023-08-17T10:49:06;25.00;73.40
75819;DHT22;64453;51.944;9.796;2023-08-17T10:51:34;24.90;74.70
75819;DHT22;64453;51.944;9.796;2023-08-17T10:54:03;24.40;75.50
75819;DHT22;64453;51.944;9.796;2023-08-17T10:56:30;24.60;75.30
75819;DHT22;64453;51.944;9.796;2023-08-17T10:58:59;24.50;75.30
75819;DHT22;64453;51.944;9.796;2023-08-17T11:01:36;24.50;75.80
75819;DHT22;64453;51.944;9.796;2023-08-17T11:04:10;24.80;75.90
75819;DHT22;64453;51.944;9.796;2023-08-17T11:06:39;24.70;75.90
75819;DHT22;64453;51.944;9.796;2023-08-17T11:09:07;24.90;76.20
75819;DHT22;64453;51.944;9.796;2023-08-17T11:11:35;25.00;76.90
75819;DHT22;64453;51.944;9.796;2023-08-17T11:14:02;24.80;75.50
75819;DHT22;64453;51.944;9.796;2023-08-17T11:16:30;24.80;76.30
75819;DHT22;64453;51.944;9.796;2023-08-17T11:19:00;24.80;75.20
75819;DHT22;64453;51.944;9.796;2023-08-17T11:21:27;25.00;76.20
75819;DHT22;64453;51.944;9.796;2023-08-17T11:23:56;24.90;75.60
75819;DHT22;64453;51.944;9.796;2023-08-17T11:26:24;25.10;75.20
75819;DHT22;64453;51.944;9.796;2023-08-17T11:28:51;25.10;75.20
75819;DHT22;64453;51.944;9.796;2023-08-17T11:31:18;25.00;76.20
75819;DHT22;64453;51.944;9.796;2023-08-17T11:33:45;25.10;76.90
75819;DHT22;64453;51.944;9.796;2023-08-17T11:36:14;24.60;76.80
75819;DHT22;64453;51.944;9.796;2023-08-17T11:38:42;24.70;76.60
75819;DHT22;64453;51.944;9.796;2023-08-17T11:41:10;24.50;75.50
75819;DHT22;64453;51.944;9.796;2023-08-17T11:43:37;24.60;77.50
75819;DHT22;64453;51.944;9.796;2023-08-17T11:46:05;24.80;76.30
75819;DHT22;64453;51.944;9.796;2023-08-17T11:48:32;25.00;76.00
75819;DHT22;64453;51.944;9.796;2023-08-17T11:51:00;24.60;75.80
75819;DHT22;64453;51.944;9.796;2023-08-17T11:53:34;24.70;76.00
75819;DHT22;64453;51.944;9.796;2023-08-17T11:56:02;24.60;75.70
75819;DHT22;64453;51.944;9.796;2023-08-17T11:58:42;25.00;76.70
75819;DHT22;64453;51.944;9.796;2023-08-17T12:01:10;25.20;76.00
75819;DHT22;64453;51.944;9.796;2023-08-17T12:03:38;24.80;75.00
75819;DHT22;64453;51.944;9.796;2023-08-17T12:06:06;24.70;75.50
75819;DHT22;64453;51.944;9.796;2023-08-17T12:08:35;24.80;75.20
75819;DHT22;64453;51.944;9.796;2023-08-17T12:11:02;24.40;76.20
75819;DHT22;64453;51.944;9.796;2023-08-17T12:13:31;24.40;76.90
75819;DHT22;64453;51.944;9.796;2023-08-17T12:15:59;24.30;77.60
75819;DHT22;64453;51.944;9.796;2023-08-17T12:18:26;24.20;76.10
75819;DHT22;64453;51.944;9.796;2023-08-17T12:20:54;24.30;76.00
75819;DHT22;64453;51.944;9.796;2023-08-17T12:23:21;23.90;76.50
75819;DHT22;64453;51.944;9.796;2023-08-17T12:25:53;23.70;77.30
75819;DHT22;64453;51.944;9.796;2023-08-17T12:28:21;24.40;76.50
75819;DHT22;64453;51.944;9.796;2023-08-17T12:30:57;23.80;77.60
75819;DHT22;64453;51.944;9.796;2023-08-17T12:33:26;24.10;77.60
75819;DHT22;64453;51.944;9.796;2023-08-17T12:35:53;23.90;76.80
75819;DHT22;64453;51.944;9.796;2023-08-17T12:38:21;23.90;77.10
75819;DHT22;64453;51.944;9.796;2023-08-17T12:40:50;23.50;75.60
75819;DHT22;64453;51.944;9.796;2023-08-17T12:43:18;23.80;75.90
75819;DHT22;64453;51.944;9.796;2023-08-17T12:45:45;23.30;76.40
75819;DHT22;64453;51.944;9.796;2023-08-17T12:48:12;22.50;76.80
75819;DHT22;64453;51.944;9.796;2023-08-17T12:50:39;22.40;78.50
75819;DHT22;64453;51.944;9.796;2023-08-17T12:53:06;22.40;78.30
75819;DHT22;64453;51.944;9.796;2023-08-17T12:55:33;22.20;77.50
75819;DHT22;64453;51.944;9.796;2023-08-17T12:58:00;22.50;77.50
75819;DHT22;64453;51.944;9.796;2023-08-17T13:00:29;22.90;76.50
75819;DHT22;64453;51.944;9.796;2023-08-17T13:02:56;22.60;76.90
75819;DHT22;64453;51.944;9.796;2023-08-17T13:05:23;22.20;77.60
75819;DHT22;64453;51.944;9.796;2023-08-17T13:07:50;21.80;78.20
75819;DHT22;64453;51.944;9.796;2023-08-17T13:10:17;21.40;80.60
75819;DHT22;64453;51.944;9.796;2023-08-17T13:12:44;21.70;80.00
75819;DHT22;64453;51.944;9.796;2023-08-17T13:15:12;21.50;79.80
75819;DHT22;64453;51.944;9.796;2023-08-17T13:17:41;21.90;80.40
75819;DHT22;64453;51.944;9.796;2023-08-17T13:20:09;21.90;80.00
75819;DHT22;64453;51.944;9.796;2023-08-17T13:22:37;21.80;78.30
75819;DHT22;64453;51.944;9.796;2023-08-17T13:25:04;21.70;79.10
75819;DHT22;64453;51.944;9.796;2023-08-17T13:27:32;22.10;78.60
75819;DHT22;64453;51.944;9.796;2023-08-17T13:29:59;21.90;75.40
75819;DHT22;64453;51.944;9.796;2023-08-17T13:32:27;21.90;78.20
75819;DHT22;64453;51.944;9.796;2023-08-17T13:34:55;22.30;77.40
75819;DHT22;64453;51.944;9.796;2023-08-17T13:37:22;21.90;76.50
75819;DHT22;64453;51.944;9.796;2023-08-17T13:39:49;22.00;76.90
75819;DHT22;64453;51.944;9.796;2023-08-17T13:42:16;22.60;75.30
75819;DHT22;64453;51.944;9.796;2023-08-17T13:44:43;22.30;74.60
75819;DHT22;64453;51.944;9.796;2023-08-17T13:47:11;21.80;75.70
75819;DHT22;64453;51.944;9.796;2023-08-17T13:49:38;21.10;78.70
75819;DHT22;64453;51.944;9.796;2023-08-17T13:52:06;21.50;78.40
75819;DHT22;64453;51.944;9.796;2023-08-17T13:54:33;22.50;76.80
75819;DHT22;64453;51.944;9.796;2023-08-17T13:57:00;22.90;73.90
75819;DHT22;64453;51.944;9.796;2023-08-17T13:59:27;22.50;73.80
75819;DHT22;64453;51.944;9.796;2023-08-17T14:01:55;22.30;72.30
75819;DHT22;64453;51.944;9.796;2023-08-17T14:04:22;21.70;74.60
75819;DHT22;64453;51.944;9.796;2023-08-17T14:06:49;21.90;75.40
75819;DHT22;64453;51.944;9.796;2023-08-17T14:09:18;22.30;74.80
75819;DHT22;64453;51.944;9.796;2023-08-17T14:11:45;22.60;74.10
75819;DHT22;64453;51.944;9.796;2023-08-17T14:14:12;21.80;74.60
75819;DHT22;64453;51.944;9.796;2023-08-17T14:16:39;22.20;75.00
75819;DHT22;64453;51.944;9.796;2023-08-17T14:19:06;22.10;74.50
75819;DHT22;64453;51.944;9.796;2023-08-17T14:21:33;22.40;74.90
75819;DHT22;64453;51.944;9.796;2023-08-17T14:24:00;22.50;73.90
75819;DHT22;64453;51.944;9.796;2023-08-17T14:26:28;21.90;75.10
75819;DHT22;64453;51.944;9.796;2023-08-17T14:28:55;21.80;75.70
75819;DHT22;64453;51.944;9.796;2023-08-17T14:31:22;21.70;75.30
75819;DHT22;64453;51.944;9.796;2023-08-17T14:33:49;21.10;77.30
75819;DHT22;64453;51.944;9.796;2023-08-17T14:36:16;21.40;79.30
75819;DHT22;64453;51.944;9.796;2023-08-17T14:38:43;21.00;77.30
75819;DHT22;64453;51.944;9.796;2023-08-17T14:41:10;21.80;77.10
75819;DHT22;64453;51.944;9.796;2023-08-17T14:43:39;21.60;76.20
75819;DHT22;64453;51.944;9.796;2023-08-17T14:46:06;21.90;76.00
75819;DHT22;64453;51.944;9.796;2023-08-17T14:48:33;22.20;75.30
75819;DHT22;64453;51.944;9.796;2023-08-17T14:51:00;22.30;75.60
75819;DHT22;64453;51.944;9.796;2023-08-17T14:53:27;22.20;73.80
75819;DHT22;64453;51.944;9.796;2023-08-17T14:55:54;22.70;73.80
75819;DHT22;64453;51.944;9.796;2023-08-17T14:58:21;22.40;71.60
75819;DHT22;64453;51.944;9.796;2023-08-17T15:00:50;22.40;74.00
75819;DHT22;64453;51.944;9.796;2023-08-17T15:03:16;21.70;75.70
75819;DHT22;64453;51.944;9.796;2023-08-17T15:05:43;22.00;75.50
75819;DHT22;64453;51.944;9.796;2023-08-17T15:08:10;22.10;74.40
75819;DHT22;64453;51.944;9.796;2023-08-17T15:10:37;22.60;73.90
75819;DHT22;64453;51.944;9.796;2023-08-17T15:13:04;22.80;72.20
75819;DHT22;64453;51.944;9.796;2023-08-17T15:15:31;22.00;73.30
75819;DHT22;64453;51.944;9.796;2023-08-17T15:18:00;22.40;74.10
75819;DHT22;64453;51.944;9.796;2023-08-17T15:20:27;22.70;72.40
75819;DHT22;64453;51.944;9.796;2023-08-17T15:22:55;22.80;71.60
75819;DHT22;64453;51.944;9.796;2023-08-17T15:25:22;22.70;72.40
75819;DHT22;64453;51.944;9.796;2023-08-17T15:27:49;22.70;72.30
75819;DHT22;64453;51.944;9.796;2023-08-17T15:30:17;22.30;72.10
75819;DHT22;64453;51.944;9.796;2023-08-17T15:32:44;22.70;71.90
75819;DHT22;64453;51.944;9.796;2023-08-17T15:35:14;22.70;72.50